Time;durP1;ratioP1;P1;durP2;ratioP2;P2;SDS_P1;SDS_P2;PMS_P1;PMS_P2;Temp;Humidity;BMP_temperature;BMP_pressure;BME280_temperature;BME280_humidity;BME280_pressure;Samples;Min_cycle;Max_cycle;Signal;HPM_P1;HPM_P2
2024/01/11 00:00:04;;;;;;;16.60;10.57;;;;;;;-4.64;100.00;103232.34;5130533;27;20511;-35
2024/01/11 00:02:30;;;;;;;15.32;10.60;;;;;;;-4.70;100.00;103230.00;5129452;28;20063;-34
2024/01/11 00:04:55;;;;;;;18.27;11.33;;;;;;;-4.63;100.00;103235.88;5130428;28;20080;-34
2024/01/11 00:07:20;;;;;;;20.63;12.77;;;;;;;-4.69;100.00;103248.41;5122435;28;20371;-34
2024/01/11 00:09:46;;;;;;;19.93;11.90;;;;;;;-4.74;100.00;103245.13;5116635;28;20088;-34
2024/01/11 00:12:11;;;;;;;18.53;11.83;;;;;;;-4.75;100.00;103242.56;5116687;28;20055;-34
2024/01/11 00:14:37;;;;;;;16.13;11.73;;;;;;;-4.75;100.00;103245.22;5116282;28;20028;-34
2024/01/11 00:17:02;;;;;;;18.70;11.60;;;;;;;-4.76;100.00;103246.16;5117182;28;20261;-34
2024/01/11 00:19:27;;;;;;;19.00;12.10;;;;;;;-4.79;100.00;103241.84;5116512;28;20020;-34
2024/01/11 00:21:53;;;;;;;19.37;12.60;;;;;;;-4.81;100.00;103248.16;5116549;28;20284;-34
2024/01/11 00:24:18;;;;;;;18.95;11.15;;;;;;;-4.83;100.00;103248.22;5116112;28;20110;-34
2024/01/11 00:26:44;;;;;;;16.57;11.33;;;;;;;-4.88;100.00;103222.97;5115958;28;20126;-34
2024/01/11 00:29:09;;;;;;;18.90;11.07;;;;;;;-4.88;100.00;103215.94;5116296;28;20659;-34
2024/01/11 00:31:35;;;;;;;18.87;11.50;;;;;;;-4.81;100.00;103241.09;5116815;28;20042;-35
2024/01/11 00:34:00;;;;;;;16.45;10.55;;;;;;;-4.77;100.00;103247.94;5116236;28;20031;-34
2024/01/11 00:36:26;;;;;;;18.90;11.93;;;;;;;-4.87;100.00;103238.75;5115874;28;20023;-34
2024/01/11 00:38:51;;;;;;;15.85;10.65;;;;;;;-4.88;100.00;103241.44;5116184;28;20024;-35
2024/01/11 00:41:17;;;;;;;16.87;11.17;;;;;;;-4.90;100.00;103230.09;5116631;28;20115;-35
2024/01/11 00:43:42;;;;;;;22.50;11.30;;;;;;;-4.86;100.00;103236.97;5116132;27;20031;-35
2024/01/11 00:46:08;;;;;;;18.47;11.97;;;;;;;-4.87;100.00;103236.09;5116052;27;20038;-35
2024/01/11 00:48:33;;;;;;;17.42;10.63;;;;;;;-4.87;100.00;103229.97;5115975;28;20024;-35
2024/01/11 00:50:58;;;;;;;17.33;11.43;;;;;;;-4.79;100.00;103238.38;5115882;28;20045;-35
2024/01/11 00:53:24;;;;;;;17.90;11.00;;;;;;;-4.78;100.00;103253.28;5116164;28;20114;-35
2024/01/11 00:55:49;;;;;;;17.03;11.53;;;;;;;-4.77;100.00;103240.00;5115739;28;20035;-35
2024/01/11 00:58:14;;;;;;;16.90;11.30;;;;;;;-4.80;100.00;103228.75;5115485;28;20074;-35
2024/01/11 01:00:40;;;;;;;15.17;10.50;;;;;;;-4.86;100.00;103214.06;5116055;28;20357;-35
2024/01/11 01:03:05;;;;;;;18.53;12.00;;;;;;;-4.75;100.00;103240.78;5116089;28;20427;-35
2024/01/11 01:05:30;;;;;;;18.70;11.30;;;;;;;-4.87;100.00;103217.63;5115309;28;20082;-35
2024/01/11 01:07:56;;;;;;;16.40;10.60;;;;;;;-4.70;100.00;103235.28;5115618;28;20039;-35
2024/01/11 01:10:21;;;;;;;18.20;10.93;;;;;;;-4.70;100.00;103244.06;5115343;28;20024;-35
2024/01/11 01:12:46;;;;;;;16.73;10.73;;;;;;;-4.73;100.00;103243.38;5115749;28;20361;-35
2024/01/11 01:15:12;;;;;;;14.13;10.20;;;;;;;-4.69;100.00;103250.19;5115170;28;20047;-35
2024/01/11 01:17:37;;;;;;;15.67;10.30;;;;;;;-4.80;100.00;103241.94;5115880;28;20027;-35
2024/01/11 01:20:03;;;;;;;16.70;10.40;;;;;;;-4.77;100.00;103257.66;5114445;28;20399;-35
2024/01/11 01:22:28;;;;;;;16.85;10.55;;;;;;;-4.78;100.00;103261.19;5115327;27;20663;-35
2024/01/11 01:24:54;;;;;;;19.75;11.88;;;;;;;-4.85;100.00;103262.41;5115790;28;20042;-35
2024/01/11 01:27:19;;;;;;;15.83;10.37;;;;;;;-4.82;100.00;103264.91;5148956;27;20059;-35
2024/01/11 01:29:44;;;;;;;16.97;10.70;;;;;;;-4.98;100.00;103255.09;5115407;28;20023;-35
2024/01/11 01:32:10;;;;;;;17.83;11.93;;;;;;;-4.96;100.00;103276.13;5115355;28;20031;-35
2024/01/11 01:34:35;;;;;;;19.70;12.47;;;;;;;-4.99;100.00;103269.19;5115049;27;20023;-34
2024/01/11 01:37:00;;;;;;;19.10;11.40;;;;;;;-5.06;100.00;103259.00;5115057;28;20525;-34
2024/01/11 01:39:26;;;;;;;19.77;12.53;;;;;;;-5.09;100.00;103275.81;5115005;28;20420;-35
2024/01/11 01:41:51;;;;;;;18.57;12.43;;;;;;;-5.20;100.00;103256.97;5115131;28;20035;-34
2024/01/11 01:44:16;;;;;;;19.63;12.07;;;;;;;-5.08;100.00;103276.66;5115089;28;20077;-34
2024/01/11 01:46:42;;;;;;;16.23;11.07;;;;;;;-5.03;100.00;103277.31;5115612;28;20394;-34
2024/01/11 01:49:07;;;;;;;19.83;12.00;;;;;;;-5.14;100.00;103285.72;5114769;28;20379;-34
2024/01/11 01:51:33;;;;;;;19.65;12.48;;;;;;;-5.23;100.00;103284.34;5114451;27;20261;-34
2024/01/11 01:54:00;;;;;;;17.38;11.05;;;;;;;-5.23;100.00;103291.41;5114735;28;20027;-36
2024/01/11 01:56:26;;;;;;;19.17;12.32;;;;;;;-5.25;100.00;103293.25;5114900;28;20048;-34
2024/01/11 01:58:53;;;;;;;19.02;12.57;;;;;;;-5.25;100.00;103291.47;5114304;28;20490;-35
2024/01/11 02:01:19;;;;;;;19.10;11.60;;;;;;;-5.23;100.00;103292.25;5115060;28;20030;-35
2024/01/11 02:03:46;;;;;;;19.10;12.00;;;;;;;-5.26;100.00;103292.41;5114961;28;20037;-35
2024/01/11 02:06:13;;;;;;;18.27;11.90;;;;;;;-5.33;100.00;103285.69;5114541;28;20031;-35
2024/01/11 02:08:42;;;;;;;18.35;11.95;;;;;;;-5.34;100.00;103267.28;5114421;28;20417;-35
2024/01/11 02:11:08;;;;;;;18.92;12.27;;;;;;;-5.27;100.00;103279.25;5114463;28;20114;-35
2024/01/11 02:13:33;;;;;;;18.75;12.32;;;;;;;-5.31;100.00;103281.22;5114339;28;20055;-35
2024/01/11 02:15:58;;;;;;;16.67;11.05;;;;;;;-5.30;100.00;103268.88;5114540;28;20070;-35
2024/01/11 02:18:24;;;;;;;20.43;12.63;;;;;;;-5.32;100.00;103275.97;5114231;28;20032;-35
2024/01/11 02:20:49;;;;;;;21.40;12.57;;;;;;;-5.36;100.00;103279.72;5114288;28;20136;-35
2024/01/11 02:23:19;;;;;;;21.03;12.93;;;;;;;-5.57;100.00;103255.97;5114270;28;20042;-35
2024/01/11 02:25:44;;;;;;;18.13;11.95;;;;;;;-5.52;100.00;103274.22;5113851;28;20745;-35
2024/01/11 02:28:11;;;;;;;20.80;12.00;;;;;;;-5.52;100.00;103285.63;5114074;28;20034;-35
2024/01/11 02:30:36;;;;;;;;;;;;;;;-5.40;100.00;103284.25;5114050;28;20028;-35
2024/01/11 02:33:01;;;;;;;18.10;11.95;;;;;;;-5.47;100.00;103290.69;5114393;28;19960;-35
2024/01/11 02:35:27;;;;;;;18.02;11.88;;;;;;;-5.49;100.00;103288.13;5114748;28;20027;-35
2024/01/11 02:37:54;;;;;;;18.58;11.55;;;;;;;-5.52;100.00;103290.91;5114579;28;20023;-35
2024/01/11 02:40:20;;;;;;;16.85;11.32;;;;;;;-5.47;100.00;103288.06;5113681;28;20383;-35
2024/01/11 02:42:45;;;;;;;17.17;11.88;;;;;;;-5.56;100.00;103284.06;5114477;28;20031;-35
2024/01/11 02:45:14;;;;;;;18.70;11.03;;;;;;;-5.51;100.00;103289.16;5113627;28;20452;-35
2024/01/11 02:47:40;;;;;;;20.77;12.00;;;;;;;-5.61;100.00;103261.44;5113835;28;20032;-35
2024/01/11 02:50:07;;;;;;;18.25;12.15;;;;;;;-5.54;100.00;103282.22;5114334;28;20103;-35
2024/01/11 02:52:33;;;;;;;20.13;12.65;;;;;;;-5.62;100.00;103275.56;5114629;28;20028;-35
2024/01/11 02:54:58;;;;;;;;;;;;;;;-5.52;100.00;103287.41;5113852;28;20055;-35
2024/01/11 02:57:24;;;;;;;20.80;12.43;;;;;;;-5.61;100.00;103291.31;5114091;28;19919;-35
2024/01/11 02:59:51;;;;;;;21.77;13.40;;;;;;;-5.65;100.00;103294.16;5113801;28;20273;-35
2024/01/11 03:02:16;;;;;;;20.13;12.13;;;;;;;-5.64;100.00;103290.59;5113451;28;20019;-35
2024/01/11 03:04:42;;;;;;;18.67;12.23;;;;;;;-5.67;100.00;103286.28;5114270;28;20024;-35
2024/01/11 03:07:07;;;;;;;26.03;13.73;;;;;;;-5.69;100.00;103288.16;5112730;28;20285;-35
2024/01/11 03:09:34;;;;;;;19.08;12.40;;;;;;;-5.65;100.00;103288.88;5113733;28;20034;-35
2024/01/11 03:11:59;;;;;;;17.95;12.43;;;;;;;-5.62;100.00;103286.09;5113972;28;20057;-35
2024/01/11 03:14:24;;;;;;;23.27;12.80;;;;;;;-5.61;100.00;103279.91;5113369;28;20028;-35
2024/01/11 03:16:50;;;;;;;23.23;12.87;;;;;;;-5.71;100.00;103275.03;5113902;28;20661;-35
2024/01/11 03:19:15;;;;;;;18.57;12.50;;;;;;;-5.60;100.00;103277.22;5112355;28;20391;-35
2024/01/11 03:21:44;;;;;;;18.63;12.40;;;;;;;-5.61;100.00;103285.16;5113623;28;20032;-35
2024/01/11 03:24:09;;;;;;;17.65;12.00;;;;;;;-5.58;100.00;103287.69;5113522;28;20073;-35
2024/01/11 03:26:34;;;;;;;19.37;13.07;;;;;;;-5.65;100.00;103287.09;5113514;28;20456;-35
2024/01/11 03:29:00;;;;;;;20.67;12.60;;;;;;;-5.68;100.00;103289.84;5113405;28;20055;-35
2024/01/11 03:31:25;;;;;;;17.65;11.88;;;;;;;-5.83;100.00;103280.81;5113961;28;20426;-35
2024/01/11 03:33:51;;;;;;;20.07;12.27;;;;;;;-5.86;100.00;103280.09;5113433;28;20043;-35
2024/01/11 03:36:16;;;;;;;18.17;12.30;;;;;;;-6.04;100.00;103250.16;5113837;28;20020;-35
2024/01/11 03:38:41;;;;;;;18.27;11.73;;;;;;;-5.85;100.00;103279.19;5113126;28;20777;-35
2024/01/11 03:41:08;;;;;;;20.63;12.87;;;;;;;-5.91;100.00;103279.47;5113522;28;20531;-35
2024/01/11 03:43:34;;;;;;;18.13;11.98;;;;;;;-5.92;100.00;103270.69;5116882;28;20028;-35
2024/01/11 03:45:59;;;;;;;20.02;11.98;;;;;;;-6.03;100.00;103268.53;5118326;28;20043;-35
2024/01/11 03:48:24;;;;;;;18.83;11.73;;;;;;;-5.92;100.00;103281.25;5116832;28;20038;-35
2024/01/11 03:50:50;;;;;;;23.93;13.80;;;;;;;-6.01;100.00;103282.47;5117435;27;20027;-35
2024/01/11 03:53:15;;;;;;;18.50;11.17;;;;;;;-5.98;100.00;103287.63;5117335;28;20102;-35
2024/01/11 03:55:40;;;;;;;19.47;12.30;;;;;;;-5.89;100.00;103288.16;5117252;28;20058;-35
2024/01/11 03:58:06;;;;;;;17.97;11.83;;;;;;;-5.90;100.00;103289.94;5117543;28;20023;-35
2024/01/11 04:00:33;;;;;;;17.77;12.03;;;;;;;-5.93;100.00;103274.25;5117036;28;20031;-35
2024/01/11 04:02:58;;;;;;;17.25;11.65;;;;;;;-6.06;100.00;103260.72;5116953;28;20039;-35
2024/01/11 04:05:23;;;;;;;17.15;11.45;;;;;;;-6.01;100.00;103273.72;5116882;28;20027;-35
2024/01/11 04:07:49;;;;;;;19.83;12.03;;;;;;;-5.99;100.00;103291.19;5116596;28;20024;-35
2024/01/11 04:10:17;;;;;;;18.30;10.87;;;;;;;-6.05;100.00;103296.72;5116814;27;20024;-34
2024/01/11 04:12:42;;;;;;;16.50;10.75;;;;;;;-6.05;100.00;103309.00;5116969;28;20379;-34
2024/01/11 04:15:08;;;;;;;22.03;13.13;;;;;;;-6.13;100.00;103314.59;5116628;28;20028;-34
2024/01/11 04:17:33;;;;;;;18.92;11.70;;;;;;;-6.21;100.00;103314.06;5117193;28;20034;-34
2024/01/11 04:19:59;;;;;;;16.30;10.80;;;;;;;-6.19;100.00;103304.31;5116603;27;20048;-34
2024/01/11 04:22:24;;;;;;;17.50;11.32;;;;;;;-6.18;100.00;103308.66;5117159;28;20394;-35
2024/01/11 04:24:49;;;;;;;19.97;12.27;;;;;;;-6.29;100.00;103303.84;5117305;28;20019;-35
2024/01/11 04:27:15;;;;;;;20.63;12.73;;;;;;;-6.30;100.00;103301.25;5116941;28;20096;-35
2024/01/11 04:29:40;;;;;;;21.30;12.00;;;;;;;-6.29;100.00;103319.63;5116160;28;20028;-35
2024/01/11 04:32:05;;;;;;;16.83;10.37;;;;;;;-6.36;100.00;103327.81;5116354;28;20015;-35
2024/01/11 04:34:31;;;;;;;19.03;12.50;;;;;;;-6.45;100.00;103344.84;5116217;28;20092;-34
2024/01/11 04:36:56;;;;;;;20.97;12.80;;;;;;;-6.54;100.00;103325.00;5116988;28;20034;-34
2024/01/11 04:39:21;;;;;;;19.23;11.87;;;;;;;-6.43;100.00;103331.63;5116240;28;20019;-34
2024/01/11 04:41:47;;;;;;;18.47;11.60;;;;;;;-6.47;100.00;103319.50;5115971;28;20059;-35
2024/01/11 04:44:13;;;;;;;17.92;11.55;;;;;;;-6.39;100.00;103323.56;5116381;28;20092;-35
2024/01/11 04:46:38;;;;;;;18.67;10.82;;;;;;;-6.31;100.00;103325.88;5116130;28;20032;-35
2024/01/11 04:49:04;;;;;;;18.37;12.20;;;;;;;-6.34;100.00;103318.97;5116030;28;20040;-35
2024/01/11 04:51:29;;;;;;;17.93;11.57;;;;;;;-6.32;100.00;103330.28;5116811;27;20023;-35
2024/01/11 04:53:54;;;;;;;16.43;10.43;;;;;;;-6.22;100.00;103331.63;5115883;28;20031;-36
2024/01/11 04:56:20;;;;;;;18.53;11.47;;;;;;;-6.23;100.00;103324.66;5116327;28;20075;-35
2024/01/11 04:58:46;;;;;;;14.97;10.10;;;;;;;-6.22;100.00;103326.38;5115819;28;20265;-35
2024/01/11 05:01:13;;;;;;;17.33;11.10;;;;;;;-6.11;100.00;103330.34;5115159;28;20028;-35
2024/01/11 05:03:38;;;;;;;17.25;9.90;;;;;;;-6.12;100.00;103337.38;5115707;28;20023;-35
2024/01/11 05:06:04;;;;;;;19.77;11.20;;;;;;;-6.15;100.00;103321.69;5115501;28;20668;-35
2024/01/11 05:08:29;;;;;;;17.13;10.23;;;;;;;-6.05;100.00;103344.13;5115338;28;20265;-35
2024/01/11 05:10:55;;;;;;;15.63;10.40;;;;;;;-6.11;100.00;103339.09;5115922;28;20375;-35
2024/01/11 05:13:20;;;;;;;18.13;10.93;;;;;;;-6.09;100.00;103345.19;5115488;28;20028;-35
2024/01/11 05:15:46;;;;;;;19.03;10.43;;;;;;;-6.12;100.00;103350.56;5116252;28;20024;-35
2024/01/11 05:18:12;;;;;;;15.63;10.68;;;;;;;-6.25;100.00;103338.78;5115445;28;20273;-35
2024/01/11 05:20:37;;;;;;;15.98;10.75;;;;;;;-6.20;100.00;103354.41;5115104;27;20031;-35
2024/01/11 05:23:03;;;;;;;16.00;11.30;;;;;;;-6.29;100.00;103353.03;5115965;28;20031;-35
2024/01/11 05:25:33;;;;;;;16.48;10.15;;;;;;;-6.40;100.00;103321.81;5115226;28;20375;-35
2024/01/11 05:27:59;;;;;;;13.98;9.50;;;;;;;-6.24;100.00;103366.88;5115564;28;20440;-35
2024/01/11 05:30:24;;;;;;;;;;;;;;;-6.20;100.00;103362.31;5115682;28;20360;-35
2024/01/11 05:32:50;;;;;;;16.00;9.80;;;;;;;-6.28;100.00;103354.72;5115226;28;19911;-35
2024/01/11 05:35:15;;;;;;;15.37;9.47;;;;;;;-6.19;100.00;103364.06;5115485;28;20065;-35
2024/01/11 05:37:40;;;;;;;15.53;10.17;;;;;;;-6.27;100.00;103375.72;5115407;28;20031;-35
2024/01/11 05:40:07;;;;;;;16.57;10.30;;;;;;;-6.33;100.00;103375.13;5114969;28;20099;-35
2024/01/11 05:42:33;;;;;;;13.40;9.35;;;;;;;-6.29;100.00;103371.47;5114956;28;20110;-35
2024/01/11 05:44:58;;;;;;;16.20;10.17;;;;;;;-6.29;100.00;103366.19;5114975;28;20118;-35
2024/01/11 05:47:24;;;;;;;15.57;9.73;;;;;;;-6.34;100.00;103350.56;5114977;27;20602;-35
2024/01/11 05:49:49;;;;;;;14.30;9.93;;;;;;;-6.24;100.00;103348.44;5114897;28;20024;-35
2024/01/11 05:52:15;;;;;;;15.85;10.57;;;;;;;-6.35;100.00;103363.78;5114511;28;20042;-35
2024/01/11 05:54:40;;;;;;;15.77;10.20;;;;;;;-6.43;100.00;103368.50;5115120;28;20038;-35
2024/01/11 05:57:07;;;;;;;12.47;8.50;;;;;;;-6.33;100.00;103367.22;5114536;28;20050;-35
2024/01/11 05:59:32;;;;;;;15.07;9.93;;;;;;;-6.37;100.00;103373.53;5114655;28;20092;-35
2024/01/11 06:02:00;;;;;;;16.88;10.35;;;;;;;-6.38;100.00;103377.94;5115462;28;20032;-35
2024/01/11 06:04:26;;;;;;;14.13;9.00;;;;;;;-6.33;100.00;103393.56;5113992;28;20028;-35
2024/01/11 06:06:51;;;;;;;13.90;9.82;;;;;;;-6.44;100.00;103382.56;5114266;28;20118;-35
2024/01/11 06:09:16;;;;;;;13.35;9.05;;;;;;;-6.43;100.00;103382.50;5114167;28;20077;-36
2024/01/11 06:11:42;;;;;;;18.00;9.93;;;;;;;-6.42;100.00;103391.28;5114801;28;20030;-35
2024/01/11 06:14:07;;;;;;;12.57;8.73;;;;;;;-6.42;100.00;103376.31;5114101;28;20269;-35
2024/01/11 06:16:33;;;;;;;15.80;9.77;;;;;;;-6.35;100.00;103376.94;5114139;28;20023;-35
2024/01/11 06:18:58;;;;;;;13.05;9.55;;;;;;;-6.44;100.00;103385.19;5114580;28;20028;-35
2024/01/11 06:21:23;;;;;;;14.30;9.27;;;;;;;-6.40;100.00;103379.75;5114562;28;20035;-36
2024/01/11 06:23:49;;;;;;;13.07;8.93;;;;;;;-6.42;100.00;103389.50;5114586;28;20027;-35
2024/01/11 06:26:14;;;;;;;15.20;9.50;;;;;;;-6.49;100.00;103391.50;5114250;28;20510;-35
2024/01/11 06:28:39;;;;;;;14.18;9.75;;;;;;;-6.43;100.00;103386.94;5114663;28;20052;-35
2024/01/11 06:31:06;;;;;;;14.90;9.57;;;;;;;-6.48;100.00;103371.31;5114440;28;20034;-35
2024/01/11 06:33:32;;;;;;;;;;;;;;;-6.41;100.00;103380.66;5114483;28;20031;-35
2024/01/11 06:35:58;;;;;;;14.85;9.32;;;;;;;-6.65;100.00;103356.13;5114631;28;20267;-35
2024/01/11 06:38:24;;;;;;;16.38;10.40;;;;;;;-6.50;100.00;103384.50;5114345;28;20024;-35
2024/01/11 06:40:49;;;;;;;13.90;9.00;;;;;;;-6.52;100.00;103391.63;5114059;28;20387;-35
2024/01/11 06:43:15;;;;;;;12.13;8.40;;;;;;;-6.53;100.00;103395.16;5113820;28;20024;-35
2024/01/11 06:45:43;;;;;;;14.63;9.82;;;;;;;-6.67;100.00;103405.34;5113660;28;20303;-35
2024/01/11 06:48:08;;;;;;;14.52;9.63;;;;;;;-6.65;100.00;103392.97;5114023;28;20028;-35
2024/01/11 06:50:33;;;;;;;15.00;9.93;;;;;;;-6.75;100.00;103388.97;5114129;28;20039;-34
2024/01/11 06:53:00;;;;;;;12.73;8.77;;;;;;;-6.68;100.00;103408.91;5113281;28;20111;-35
2024/01/11 06:55:25;;;;;;;;;;;;;;;-6.62;100.00;103418.34;5113597;28;20085;-35
2024/01/11 06:57:50;;;;;;;16.83;8.93;;;;;;;-6.66;100.00;103414.97;5113840;28;19919;-35
2024/01/11 07:00:16;;;;;;;13.10;9.47;;;;;;;-6.69;100.00;103403.66;5113965;28;20096;-35
2024/01/11 07:02:41;;;;;;;21.13;9.80;;;;;;;-6.80;100.00;103422.50;5113969;28;20637;-35
2024/01/11 07:05:07;;;;;;;13.27;8.93;;;;;;;-6.75;100.00;103415.28;5113660;28;20043;-35
2024/01/11 07:07:33;;;;;;;16.20;9.48;;;;;;;-6.77;100.00;103435.56;5112658;28;20069;-35
2024/01/11 07:09:59;;;;;;;13.07;9.23;;;;;;;-6.81;100.00;103442.69;5113805;28;20061;-35
2024/01/11 07:12:25;;;;;;;15.48;10.15;;;;;;;-6.81;100.00;103453.22;5113651;28;20075;-35
2024/01/11 07:14:51;;;;;;;19.25;10.65;;;;;;;-6.90;100.00;103435.13;5112961;28;20470;-36
2024/01/11 07:17:16;;;;;;;12.77;8.75;;;;;;;-6.72;100.00;103436.25;5115160;28;20019;-35
2024/01/11 07:19:42;;;;;;;14.90;9.37;;;;;;;-6.73;100.00;103450.31;5117907;28;20028;-35
2024/01/11 07:22:07;;;;;;;18.67;9.15;;;;;;;-6.69;100.00;103438.75;5117387;28;20055;-35
2024/01/11 07:24:37;;;;;;;15.00;9.50;;;;;;;-6.85;100.00;103416.53;5117612;28;20110;-35
2024/01/11 07:27:06;;;;;;;13.73;8.82;;;;;;;-6.80;100.00;103422.50;5117755;28;20257;-35
2024/01/11 07:29:33;;;;;;;13.68;9.20;;;;;;;-6.68;100.00;103453.66;5117708;28;20031;-35
2024/01/11 07:31:59;;;;;;;14.23;9.20;;;;;;;-6.74;100.00;103432.78;5117663;28;20668;-35
2024/01/11 07:34:24;;;;;;;14.02;8.73;;;;;;;-6.70;100.00;103447.56;5116917;27;20031;-35
2024/01/11 07:36:51;;;;;;;14.97;9.37;;;;;;;-6.68;100.00;103440.47;5116966;28;20080;-35
2024/01/11 07:39:16;;;;;;;13.35;8.68;;;;;;;-6.67;100.00;103439.56;5117028;28;20020;-35
2024/01/11 07:41:42;;;;;;;15.10;10.03;;;;;;;-6.75;100.00;103441.59;5117110;28;20050;-35
2024/01/11 07:44:07;;;;;;;16.83;8.63;;;;;;;-6.70;100.00;103447.56;5116813;28;20061;-35
2024/01/11 07:46:33;;;;;;;14.07;9.17;;;;;;;-6.87;100.00;103432.38;5117148;28;20040;-35
2024/01/11 07:48:58;;;;;;;14.83;9.40;;;;;;;-6.85;100.00;103458.63;5116256;28;20027;-35
2024/01/11 07:51:25;;;;;;;13.68;8.98;;;;;;;-6.81;100.00;103436.56;5117286;27;20043;-36
2024/01/11 07:53:50;;;;;;;18.23;10.77;;;;;;;-6.81;100.00;103452.34;5117070;28;20030;-35
2024/01/11 07:56:15;;;;;;;19.83;10.18;;;;;;;-6.84;100.00;103447.19;5117515;28;20475;-35
2024/01/11 07:58:41;;;;;;;14.83;10.03;;;;;;;-6.89;100.00;103428.94;5117807;28;20381;-35
2024/01/11 08:01:07;;;;;;;13.88;9.48;;;;;;;-6.84;100.00;103434.03;5117577;27;20280;-35
2024/01/11 08:03:34;;;;;;;12.25;8.50;;;;;;;-6.75;100.00;103431.06;5116973;28;20026;-35
2024/01/11 08:06:00;;;;;;;15.60;10.55;;;;;;;-6.80;100.00;103417.22;5117454;28;20027;-35
2024/01/11 08:08:26;;;;;;;16.48;10.70;;;;;;;-6.77;100.00;103417.97;5117639;28;20350;-35
2024/01/11 08:10:51;;;;;;;17.63;10.93;;;;;;;-6.72;100.00;103417.81;5117113;28;20110;-35
2024/01/11 08:13:17;;;;;;;16.75;9.85;;;;;;;-6.77;100.00;103396.06;5116810;28;20026;-35
2024/01/11 08:15:43;;;;;;;;;;;;;;;-6.57;100.00;103408.50;5117051;28;20065;-35
2024/01/11 08:18:08;;;;;;;17.60;10.38;;;;;;;-6.62;100.00;103403.41;5117254;28;19912;-35
2024/01/11 08:20:34;;;;;;;19.13;12.03;;;;;;;-6.56;100.00;103407.56;5116983;28;20064;-35
2024/01/11 08:22:59;;;;;;;15.00;10.10;;;;;;;-6.56;100.00;103415.47;5116949;28;20058;-35
2024/01/11 08:25:25;;;;;;;13.15;8.70;;;;;;;-6.60;100.00;103408.59;5117416;28;20085;-35
2024/01/11 08:27:50;;;;;;;16.70;10.07;;;;;;;-6.45;100.00;103425.59;5115800;28;20514;-35
2024/01/11 08:30:16;;;;;;;18.60;10.67;;;;;;;-6.40;100.00;103431.56;5116356;28;20077;-35
2024/01/11 08:32:41;;;;;;;15.80;10.75;;;;;;;-6.38;100.00;103421.84;5117002;27;20036;-35
2024/01/11 08:35:09;;;;;;;15.02;9.65;;;;;;;-6.31;100.00;103429.44;5116259;28;20038;-35
2024/01/11 08:37:35;;;;;;;15.98;10.63;;;;;;;-6.27;100.00;103417.00;5116562;28;20027;-35
2024/01/11 08:40:01;;;;;;;17.48;11.48;;;;;;;-6.27;100.00;103414.38;5116029;28;20106;-35
2024/01/11 08:42:26;;;;;;;16.00;10.40;;;;;;;-6.18;100.00;103414.03;5116241;28;20477;-35
2024/01/11 08:44:52;;;;;;;16.00;10.47;;;;;;;-6.21;100.00;103416.75;5115865;28;20016;-35
2024/01/11 08:47:17;;;;;;;16.47;10.93;;;;;;;-6.19;100.00;103422.84;5116465;28;20031;-35
2024/01/11 08:49:43;;;;;;;18.45;11.40;;;;;;;-6.17;100.00;103420.16;5116536;28;20790;-35
2024/01/11 08:52:08;;;;;;;14.53;9.97;;;;;;;-6.03;100.00;103442.41;5116033;28;20034;-35
2024/01/11 08:54:34;;;;;;;17.00;11.97;;;;;;;-6.03;100.00;103445.03;5115986;28;20431;-35
2024/01/11 08:56:59;;;;;;;16.52;11.00;;;;;;;-5.99;100.00;103441.38;5115757;28;20358;-35
2024/01/11 08:59:25;;;;;;;18.17;11.80;;;;;;;-5.93;100.00;103447.31;5115877;28;20035;-35
2024/01/11 09:01:53;;;;;;;19.23;11.65;;;;;;;-5.86;100.00;103440.84;5116418;28;20261;-35
2024/01/11 09:04:19;;;;;;;16.83;11.95;;;;;;;-5.73;100.00;103449.97;5115428;28;20031;-35
2024/01/11 09:06:45;;;;;;;19.43;11.60;;;;;;;-5.67;100.00;103447.09;5115802;28;20043;-35
2024/01/11 09:09:13;;;;;;;16.05;11.73;;;;;;;-5.66;100.00;103455.84;5115323;28;20031;-35
2024/01/11 09:11:39;;;;;;;16.60;11.15;;;;;;;-5.59;100.00;103447.66;5115871;28;20111;-35
2024/01/11 09:14:05;;;;;;;18.10;11.73;;;;;;;-5.60;100.00;103437.19;5115313;28;20475;-35
2024/01/11 09:16:31;;;;;;;22.35;14.13;;;;;;;-5.47;100.00;103451.56;5115486;28;20066;-35
2024/01/11 09:18:56;;;;;;;20.55;13.40;;;;;;;-5.39;100.00;103459.16;5115463;28;20020;-35
2024/01/11 09:21:22;;;;;;;17.43;11.83;;;;;;;-5.31;100.00;103451.81;5116265;28;20107;-35
2024/01/11 09:23:47;;;;;;;17.17;10.67;;;;;;;-5.23;100.00;103470.78;5115346;28;20459;-35
2024/01/11 09:26:13;;;;;;;19.13;12.70;;;;;;;-5.16;100.00;103471.41;5115647;28;20269;-35
2024/01/11 09:28:38;;;;;;;16.77;12.87;;;;;;;-5.10;100.00;103477.25;5114967;28;20020;-35
2024/01/11 09:31:03;;;;;;;16.60;11.87;;;;;;;-5.12;100.00;103467.69;5115264;28;20348;-35
2024/01/11 09:33:29;;;;;;;18.53;13.00;;;;;;;-5.02;100.00;103484.88;5114920;28;20055;-35
2024/01/11 09:35:56;;;;;;;20.77;13.55;;;;;;;-4.98;100.00;103465.31;5115962;28;20269;-35
2024/01/11 09:38:22;;;;;;;22.70;14.18;;;;;;;-4.85;100.00;103484.13;5115093;28;20039;-35
2024/01/11 09:40:54;;;;;;;;;;;;;;;-4.77;100.00;103484.69;5114665;28;20063;-35
2024/01/11 09:43:20;;;;;;;19.83;11.45;;;;;;;-4.74;100.00;103490.66;5115545;28;19952;-35
2024/01/11 09:45:45;;;;;;;17.15;12.20;;;;;;;-4.69;100.00;103503.66;5115492;28;20111;-35
2024/01/11 09:48:11;;;;;;;19.60;12.90;;;;;;;-4.73;100.00;103496.81;5115520;28;20172;-35
2024/01/11 09:50:38;;;;;;;20.45;13.93;;;;;;;-4.68;100.00;103506.25;5115193;27;20038;-35
2024/01/11 09:53:05;;;;;;;19.35;13.77;;;;;;;-4.57;100.00;103500.50;5115167;28;20028;-35
2024/01/11 09:55:30;;;;;;;21.70;13.88;;;;;;;-4.53;100.00;103506.50;5114716;28;20051;-35
2024/01/11 09:57:59;;;;;;;21.50;14.70;;;;;;;-4.48;100.00;103501.88;5114733;28;20111;-35
2024/01/11 10:00:25;;;;;;;20.92;14.43;;;;;;;-4.52;100.00;103480.03;5114921;28;20281;-36
2024/01/11 10:02:51;;;;;;;;;;;;;;;-4.27;100.00;103500.91;5115357;27;20032;-35
2024/01/11 10:05:17;;;;;;;19.40;13.80;;;;;;;-4.33;100.00;103492.41;5114561;28;19957;-36
2024/01/11 10:07:43;;;;;;;19.85;13.93;;;;;;;-4.13;100.00;103507.34;5115060;28;20527;-35
2024/01/11 10:10:09;;;;;;;19.97;14.53;;;;;;;-4.09;100.00;103499.22;5114476;28;20115;-35
2024/01/11 10:12:35;;;;;;;19.33;14.38;;;;;;;-3.95;100.00;103510.03;5114816;28;20031;-35
2024/01/11 10:15:09;;;;;;;24.55;15.57;;;;;;;-3.89;100.00;103516.81;5114651;28;20023;-35
2024/01/11 10:17:45;;;;;;;20.98;14.40;;;;;;;-3.85;100.00;103507.81;5115197;28;20031;-35
2024/01/11 10:20:14;;;;;;;21.10;15.17;;;;;;;-3.85;100.00;103509.59;5114059;28;20035;-35
2024/01/11 10:22:43;;;;;;;21.38;15.23;;;;;;;-3.84;100.00;103508.66;5114227;28;20023;-35
2024/01/11 10:25:13;;;;;;;24.60;15.18;;;;;;;-3.73;100.00;103527.50;5114536;28;20035;-35
2024/01/11 10:27:43;;;;;;;21.50;15.02;;;;;;;-3.64;100.00;103521.78;5114760;28;20110;-35
2024/01/11 10:30:19;;;;;;;21.10;14.38;;;;;;;-3.56;100.00;103529.34;5113881;28;20494;-35
2024/01/11 10:32:45;;;;;;;21.17;14.63;;;;;;;-3.53;100.00;103530.06;5114244;28;20028;-35
2024/01/11 10:35:10;;;;;;;;;;;;;;;-3.45;100.00;103527.06;5115037;28;20019;-35
2024/01/11 10:37:38;;;;;;;20.93;15.30;;;;;;;-3.46;100.00;103528.84;5114416;28;19949;-35
2024/01/11 10:40:12;;;;;;;20.45;14.85;;;;;;;-3.46;100.00;103526.19;5114015;28;20027;-35
2024/01/11 10:42:49;;;;;;;21.52;14.45;;;;;;;-3.34;100.00;103524.75;5113725;28;20036;-35
2024/01/11 10:45:16;;;;;;;24.30;15.15;;;;;;;-3.25;100.00;103512.84;5114298;28;20054;-35
2024/01/11 10:47:58;;;;;;;19.75;14.27;;;;;;;-3.15;100.00;103517.59;5114300;27;20426;-35
2024/01/11 10:50:25;;;;;;;18.45;14.25;;;;;;;-3.08;100.00;103519.94;5113560;28;20505;-35
2024/01/11 10:53:06;;;;;;;21.27;15.10;;;;;;;-3.03;100.00;103508.19;5113874;28;20024;-36
2024/01/11 10:55:34;;;;;;;23.30;14.93;;;;;;;-2.98;100.00;103503.50;5114609;28;20139;-35
2024/01/11 10:58:00;;;;;;;20.42;14.02;;;;;;;-2.92;100.00;103500.56;5113821;28;20027;-35